Time;durP1;ratioP1;P1;durP2;ratioP2;P2;SDS_P1;SDS_P2;PMS_P1;PMS_P2;Temp;Humidity;BMP_temperature;BMP_pressure;BME280_temperature;BME280_humidity;BME280_pressure;Samples;Min_cycle;Max_cycle;Signal;HPM_P1;HPM_P2
2021/03/28 00:01:45;;;;;;;12.52;4.57;;;;;;;6.11;65.68;102566.78;5295303;28;20760;-70
2021/03/28 00:04:20;;;;;;;14.68;4.45;;;;;;;6.14;65.10;102583.13;5298516;28;20070;-70
2021/03/28 00:06:59;;;;;;;13.82;3.95;;;;;;;6.14;65.84;102571.84;5298597;28;20493;-70
2021/03/28 00:09:33;;;;;;;15.45;4.10;;;;;;;6.14;65.71;102577.94;5294009;28;20122;-71
2021/03/28 00:12:36;;;;;;;18.00;4.00;;;;;;;6.19;65.88;102581.19;5286120;28;20020;-70
2021/03/28 00:15:10;;;;;;;16.15;4.40;;;;;;;6.13;66.17;102576.22;5291145;28;20029;-70
2021/03/28 00:18:11;;;;;;;13.65;4.28;;;;;;;6.18;65.87;102581.28;5287029;28;20031;-70
2021/03/28 00:20:44;;;;;;;13.75;4.13;;;;;;;6.12;66.23;102584.09;5296574;28;20085;-70
2021/03/28 00:23:19;;;;;;;13.68;4.10;;;;;;;6.13;66.21;102580.56;5293175;28;20028;-70
2021/03/28 00:26:15;;;;;;;12.25;3.75;;;;;;;6.15;66.32;102582.22;5295994;28;20055;-70
2021/03/28 00:28:51;;;;;;;12.77;3.70;;;;;;;6.16;66.25;102585.66;5297989;28;20051;-70
2021/03/28 00:31:28;;;;;;;13.57;3.67;;;;;;;6.15;65.94;102570.97;5299146;28;20545;-70
2021/03/28 00:34:05;;;;;;;13.98;4.03;;;;;;;6.12;66.66;102566.72;5294685;28;20031;-70
2021/03/28 00:36:42;;;;;;;16.15;4.22;;;;;;;6.09;66.40;102567.66;5296247;28;20093;-70
2021/03/28 00:39:31;;;;;;;11.00;3.67;;;;;;;6.08;66.55;102566.00;5296580;28;20032;-70
2021/03/28 00:42:07;;;;;;;16.80;4.22;;;;;;;6.03;66.96;102565.31;5296381;28;20107;-69
2021/03/28 00:44:51;;;;;;;12.30;3.83;;;;;;;6.02;66.88;102566.25;5289665;28;20032;-70
2021/03/28 00:47:27;;;;;;;11.95;3.40;;;;;;;5.97;67.70;102562.09;5296714;28;20032;-72
2021/03/28 00:50:10;;;;;;;11.15;3.65;;;;;;;5.95;66.89;102556.97;5296445;28;20101;-72
2021/03/28 00:52:51;;;;;;;12.63;3.33;;;;;;;5.86;66.56;102552.06;5293029;28;20032;-72
2021/03/28 00:55:27;;;;;;;14.27;3.85;;;;;;;5.85;67.63;102555.56;5291296;28;20983;-72
2021/03/28 00:58:05;;;;;;;16.00;3.75;;;;;;;5.82;67.39;102551.31;5297897;28;20396;-72
2021/03/28 01:01:05;;;;;;;13.48;4.32;;;;;;;5.78;67.78;102559.31;5293250;28;20381;-72
2021/03/28 01:04:06;;;;;;;13.40;3.65;;;;;;;5.73;67.98;102545.63;5295976;28;20366;-72
2021/03/28 01:06:50;;;;;;;11.48;3.80;;;;;;;5.68;68.33;102544.94;5295613;28;20396;-70
2021/03/28 01:09:52;;;;;;;16.42;4.18;;;;;;;5.64;68.38;102553.75;5295191;28;20063;-70
2021/03/28 01:12:49;;;;;;;15.13;3.65;;;;;;;5.58;68.43;102547.06;5273725;28;20131;-70
2021/03/28 01:15:42;;;;;;;16.38;3.60;;;;;;;5.58;68.41;102547.91;5297761;28;20053;-70
2021/03/28 01:18:37;;;;;;;16.27;3.97;;;;;;;5.57;69.34;102543.59;5293670;28;20036;-70
2021/03/28 01:21:25;;;;;;;14.95;3.50;;;;;;;5.50;69.32;102538.69;5295390;28;20102;-70
2021/03/28 01:24:14;;;;;;;18.20;3.75;;;;;;;5.52;69.16;102542.91;5294471;28;20031;-71
2021/03/28 01:27:10;;;;;;;11.93;3.20;;;;;;;5.50;69.86;102536.09;5295903;28;20111;-70
2021/03/28 01:29:49;;;;;;;14.90;2.97;;;;;;;5.45;69.67;102536.22;5293818;28;20093;-70
2021/03/28 01:32:25;;;;;;;13.65;3.50;;;;;;;5.42;70.28;102528.56;5296165;28;20074;-70
2021/03/28 01:35:14;;;;;;;15.38;3.97;;;;;;;5.43;69.57;102527.66;5296726;28;20035;-70
2021/03/28 01:38:02;;;;;;;13.10;3.25;;;;;;;5.39;70.63;102530.44;5294785;28;20039;-70
2021/03/28 01:40:54;;;;;;;14.88;3.85;;;;;;;5.48;70.04;102530.09;5295646;28;20028;-70
2021/03/28 01:43:38;;;;;;;11.75;3.65;;;;;;;5.46;69.97;102529.31;5297315;28;20089;-70
2021/03/28 01:46:46;;;;;;;14.00;3.72;;;;;;;5.47;70.87;102531.00;5294714;28;20024;-70
2021/03/28 01:49:51;;;;;;;11.88;3.53;;;;;;;5.44;70.32;102518.94;5297098;28;20027;-70
2021/03/28 01:52:39;;;;;;;13.85;3.92;;;;;;;5.40;70.92;102519.97;5294819;28;20044;-70
2021/03/28 01:55:22;;;;;;;14.88;3.60;;;;;;;5.39;71.09;102509.63;5291683;28;20031;-70
2021/03/28 01:58:03;;;;;;;14.05;3.45;;;;;;;5.39;71.32;102513.06;5294563;28;20038;-70
2021/03/28 02:01:12;;;;;;;18.50;4.20;;;;;;;5.39;70.73;102509.63;5292855;28;20032;-70
2021/03/28 02:03:49;;;;;;;14.80;3.40;;;;;;;5.30;72.17;102496.06;5294641;28;20050;-70
2021/03/28 02:06:33;;;;;;;15.55;3.70;;;;;;;5.34;71.94;102496.78;5295090;28;20465;-70
2021/03/28 02:09:29;;;;;;;14.32;3.90;;;;;;;5.32;71.73;102483.00;5295454;28;20024;-70
2021/03/28 02:12:07;;;;;;;14.48;3.42;;;;;;;5.37;71.40;102496.69;5296089;28;20028;-70
2021/03/28 02:14:58;;;;;;;13.75;3.30;;;;;;;5.39;72.15;102497.47;5296051;28;20119;-70
2021/03/28 02:17:48;;;;;;;14.70;3.80;;;;;;;5.40;71.72;102500.94;5284903;28;20058;-70
2021/03/28 02:20:22;;;;;;;10.05;3.58;;;;;;;5.38;72.17;102508.78;5291753;28;20039;-70
2021/03/28 02:23:21;;;;;;;14.48;4.22;;;;;;;5.42;72.22;102502.56;5284378;28;20033;-70
2021/03/28 02:26:05;;;;;;;13.05;3.53;;;;;;;5.37;71.94;102499.28;5292920;28;20034;-70
2021/03/28 02:28:55;;;;;;;;;;;;;;;5.50;71.46;102510.09;5293194;28;20059;-70
2021/03/28 02:31:26;;;;;;;17.77;3.55;;;;;;;5.34;72.07;102502.84;5290310;28;19931;-69
2021/03/28 02:34:13;;;;;;;14.70;4.05;;;;;;;5.31;72.66;102500.38;5295494;28;20458;-70
2021/03/28 02:37:19;;;;;;;14.55;3.75;;;;;;;5.41;72.83;102511.25;5294240;28;20020;-69
2021/03/28 02:40:03;;;;;;;12.75;3.50;;;;;;;5.36;72.59;102508.84;5288088;28;20504;-68
2021/03/28 02:42:55;;;;;;;17.67;5.30;;;;;;;5.37;72.20;102507.06;5278164;28;20020;-70
2021/03/28 02:45:31;;;;;;;17.42;3.50;;;;;;;5.32;72.78;102503.81;5291998;28;20031;-69
2021/03/28 02:48:14;;;;;;;16.67;3.75;;;;;;;5.32;72.82;102501.22;5290867;28;20024;-70
2021/03/28 02:50:56;;;;;;;11.38;3.70;;;;;;;5.31;73.18;102507.31;5289130;28;20396;-69
2021/03/28 02:53:59;;;;;;;13.27;3.83;;;;;;;5.33;72.60;102498.53;5291283;28;20031;-69
2021/03/28 02:56:51;;;;;;;14.80;4.15;;;;;;;5.28;72.74;102502.22;5293852;28;20028;-69
2021/03/28 02:59:53;;;;;;;11.27;3.63;;;;;;;5.28;72.57;102494.44;5293504;28;20159;-69
2021/03/28 03:03:02;;;;;;;15.77;3.60;;;;;;;5.26;72.87;102491.03;5294587;28;20642;-69
2021/03/28 03:05:45;;;;;;;13.43;3.80;;;;;;;5.20;73.34;102486.91;5293655;28;20515;-70
2021/03/28 03:08:21;;;;;;;14.80;3.47;;;;;;;5.19;73.66;102492.13;5291156;28;20039;-69
2021/03/28 03:11:06;;;;;;;15.95;3.90;;;;;;;5.18;73.65;102490.44;5295345;28;20056;-69
2021/03/28 03:14:04;;;;;;;14.27;4.00;;;;;;;5.18;72.87;102490.44;5294347;28;20036;-69
2021/03/28 03:17:13;;;;;;;11.05;3.40;;;;;;;5.20;73.67;102486.91;5294301;28;20385;-70
2021/03/28 03:20:21;;;;;;;15.93;3.92;;;;;;;5.13;73.43;102488.88;5292056;28;20032;-69
2021/03/28 03:23:17;;;;;;;15.82;3.78;;;;;;;5.03;73.67;102490.09;5295533;28;20507;-69
2021/03/28 03:25:58;;;;;;;10.93;3.25;;;;;;;5.05;73.70;102496.09;5293400;28;20119;-70
2021/03/28 03:29:05;;;;;;;9.65;3.15;;;;;;;5.02;73.56;102484.97;5292514;28;20081;-69
2021/03/28 03:32:04;;;;;;;9.75;3.53;;;;;;;5.02;73.98;102491.00;5294571;28;20055;-70
2021/03/28 03:34:57;;;;;;;17.30;3.95;;;;;;;5.02;74.35;102496.19;5293805;28;20031;-70
2021/03/28 03:37:49;;;;;;;10.77;3.53;;;;;;;4.96;73.54;102486.00;5292705;28;20077;-69
2021/03/28 03:40:39;;;;;;;9.27;3.40;;;;;;;5.00;73.52;102494.53;5296058;28;20078;-70
2021/03/28 03:43:32;;;;;;;13.75;3.67;;;;;;;4.96;73.84;102493.78;5295463;28;20077;-70
2021/03/28 03:46:31;;;;;;;11.05;3.70;;;;;;;5.00;74.13;102500.59;5292744;28;20039;-70
2021/03/28 03:49:11;;;;;;;11.27;3.63;;;;;;;4.96;74.72;102501.59;5289755;28;20024;-69
2021/03/28 03:51:48;;;;;;;12.68;3.70;;;;;;;4.95;73.74;102497.31;5296374;28;20078;-69
2021/03/28 03:54:44;;;;;;;10.85;3.75;;;;;;;4.99;74.38;102504.09;5297929;28;20477;-69
2021/03/28 03:57:53;;;;;;;11.02;3.63;;;;;;;5.03;74.21;102502.22;5298987;28;20043;-69
2021/03/28 04:00:24;;;;;;;9.65;3.38;;;;;;;5.01;73.90;102507.50;5290537;28;20057;-69
2021/03/28 04:03:05;;;;;;;11.93;3.30;;;;;;;5.05;74.54;102498.69;5285442;28;20081;-69
2021/03/28 04:06:03;;;;;;;12.70;3.55;;;;;;;5.11;74.37;102503.69;5292104;28;20032;-69
2021/03/28 04:08:58;;;;;;;15.57;3.55;;;;;;;5.10;74.98;102496.78;5292972;28;20031;-69
2021/03/28 04:12:00;;;;;;;13.30;3.53;;;;;;;5.18;73.96;102500.84;5294304;28;20042;-69
2021/03/28 04:14:52;;;;;;;11.13;3.63;;;;;;;5.16;75.04;102502.66;5298054;28;20036;-69
2021/03/28 04:17:57;;;;;;;11.27;3.70;;;;;;;5.23;74.33;102515.38;5295862;28;20480;-69
2021/03/28 04:21:04;;;;;;;9.95;3.30;;;;;;;5.28;73.73;102505.66;5293803;28;20036;-69
2021/03/28 04:23:42;;;;;;;9.50;2.95;;;;;;;5.30;74.34;102509.06;5296414;28;20039;-69
2021/03/28 04:26:52;;;;;;;15.85;3.47;;;;;;;5.39;74.09;102502.69;5297813;28;20096;-69
2021/03/28 04:29:24;;;;;;;14.50;4.50;;;;;;;5.37;73.71;102494.91;5258535;28;20263;-69
2021/03/28 04:32:04;;;;;;;10.00;2.70;;;;;;;5.45;74.09;102502.44;5297251;28;20098;-69
2021/03/28 04:35:13;;;;;;;11.68;3.78;;;;;;;5.52;73.85;102496.13;5299066;28;20030;-69
2021/03/28 04:38:18;;;;;;;11.63;3.25;;;;;;;5.57;74.10;102501.16;5296632;28;20475;-69
2021/03/28 04:40:52;;;;;;;11.52;3.05;;;;;;;5.57;73.64;102491.63;5296056;28;20480;-69
2021/03/28 04:43:32;;;;;;;11.85;3.00;;;;;;;5.63;74.23;102492.28;5299247;28;20093;-69
2021/03/28 04:46:27;;;;;;;11.23;2.85;;;;;;;5.60;73.61;102493.22;5297733;28;20377;-70
2021/03/28 04:49:44;;;;;;;12.52;3.38;;;;;;;5.71;73.23;102490.22;5298168;28;20231;-69
2021/03/28 04:52:52;;;;;;;13.95;4.03;;;;;;;5.76;73.51;102477.91;5280405;28;20051;-69
2021/03/28 04:56:02;;;;;;;10.20;2.80;;;;;;;5.78;72.89;102476.09;5293120;28;20074;-70
2021/03/28 04:58:52;;;;;;;9.80;2.75;;;;;;;5.79;73.48;102470.81;5295868;28;20070;-69
2021/03/28 05:01:42;;;;;;;8.23;3.00;;;;;;;5.81;73.91;102473.38;5287890;28;20044;-69
2021/03/28 05:04:40;;;;;;;9.85;2.85;;;;;;;5.82;73.40;102472.47;5294788;28;20106;-69
2021/03/28 05:07:44;;;;;;;8.23;2.80;;;;;;;5.86;73.57;102474.03;5297133;28;20439;-69
2021/03/28 05:10:30;;;;;;;10.57;2.90;;;;;;;5.88;73.43;102477.44;5296875;28;20085;-69
2021/03/28 05:13:16;;;;;;;11.45;2.80;;;;;;;5.88;72.63;102480.03;5296312;28;20035;-69
2021/03/28 05:16:06;;;;;;;14.07;2.78;;;;;;;5.89;73.21;102481.72;5297093;28;20064;-69
2021/03/28 05:19:00;;;;;;;9.60;2.95;;;;;;;5.95;72.56;102485.88;5296883;28;20046;-69
2021/03/28 05:22:03;;;;;;;10.93;3.58;;;;;;;5.97;73.15;102477.09;5293910;28;20024;-69
2021/03/28 05:24:52;;;;;;;8.52;3.00;;;;;;;6.00;72.59;102482.19;5296177;28;20032;-69
2021/03/28 05:27:24;;;;;;;10.98;2.70;;;;;;;5.98;72.80;102485.75;5296181;28;20020;-70
2021/03/28 05:30:23;;;;;;;8.90;2.70;;;;;;;5.98;72.71;102477.94;5295823;28;20392;-69
2021/03/28 05:33:24;;;;;;;11.27;3.08;;;;;;;5.99;72.61;102487.47;5302626;28;20024;-69
2021/03/28 05:36:05;;;;;;;10.57;3.00;;;;;;;6.04;72.79;102477.72;5295967;28;20107;-70
2021/03/28 05:38:54;;;;;;;7.65;2.60;;;;;;;6.05;72.25;102477.63;5294333;28;20043;-69
2021/03/28 05:41:49;;;;;;;10.05;3.70;;;;;;;6.06;72.51;102474.16;5297683;28;20032;-69
2021/03/28 05:44:36;;;;;;;8.88;2.60;;;;;;;6.06;72.35;102471.53;5296223;28;20032;-69
2021/03/28 05:47:45;;;;;;;7.75;2.65;;;;;;;6.13;72.42;102469.53;5295321;28;20233;-69
2021/03/28 05:50:27;;;;;;;8.98;3.00;;;;;;;6.12;72.84;102461.78;5295168;28;20024;-69
2021/03/28 05:53:13;;;;;;;8.80;2.47;;;;;;;6.13;72.69;102468.69;5295740;28;20020;-69
2021/03/28 05:56:11;;;;;;;7.93;2.83;;;;;;;6.15;72.73;102465.13;5294678;28;20063;-69
2021/03/28 05:58:57;;;;;;;18.90;3.47;;;;;;;6.14;73.03;102470.38;5297244;28;20064;-69
2021/03/28 06:01:50;;;;;;;9.23;2.95;;;;;;;6.15;72.96;102477.28;5297014;28;20032;-69
2021/03/28 06:04:30;;;;;;;10.90;3.17;;;;;;;6.16;73.02;102469.41;5295529;28;20508;-69
2021/03/28 06:07:38;;;;;;;10.00;2.67;;;;;;;6.20;72.26;102468.38;5295439;28;20032;-69
2021/03/28 06:10:49;;;;;;;8.93;2.60;;;;;;;6.25;72.77;102471.66;5295966;28;20110;-72
2021/03/28 06:13:29;;;;;;;9.93;2.90;;;;;;;6.23;72.93;102467.41;5296714;28;20036;-69
2021/03/28 06:16:38;;;;;;;10.90;3.15;;;;;;;6.27;72.86;102464.63;5293605;28;20031;-69
2021/03/28 06:19:49;;;;;;;7.10;2.60;;;;;;;6.34;73.00;102466.06;5292915;28;20059;-69
2021/03/28 06:22:58;;;;;;;7.95;2.42;;;;;;;6.39;72.96;102462.41;5294572;28;20081;-69
2021/03/28 06:25:35;;;;;;;10.32;2.78;;;;;;;6.44;72.33;102465.66;5293263;28;20036;-69
2021/03/28 06:28:25;;;;;;;7.15;3.03;;;;;;;6.48;72.91;102457.69;5285216;28;20093;-69
2021/03/28 06:31:33;;;;;;;11.95;3.15;;;;;;;6.52;72.50;102469.66;5295209;28;20040;-69
2021/03/28 06:34:26;;;;;;;8.07;2.63;;;;;;;6.53;72.66;102467.91;5291644;28;20439;-68
2021/03/28 06:37:16;;;;;;;12.95;4.22;;;;;;;6.48;72.46;102472.47;5295299;28;20102;-69
2021/03/28 06:40:26;;;;;;;11.60;2.90;;;;;;;6.58;72.66;102474.59;5295149;28;20453;-69
2021/03/28 06:43:09;;;;;;;10.40;3.33;;;;;;;6.62;72.64;102469.28;5295831;28;20531;-69
2021/03/28 06:45:40;;;;;;;9.90;3.05;;;;;;;6.70;72.54;102478.44;5295445;28;20047;-71
2021/03/28 06:48:59;;;;;;;10.55;3.05;;;;;;;6.81;71.99;102470.19;5292316;28;20032;-69
2021/03/28 06:52:08;;;;;;;13.25;3.97;;;;;;;6.94;72.32;102478.34;5294575;28;20111;-69
2021/03/28 06:54:58;;;;;;;10.60;2.90;;;;;;;7.03;71.89;102478.75;5290462;28;20162;-69
2021/03/28 06:57:56;;;;;;;10.10;2.97;;;;;;;7.07;71.84;102472.50;5291483;28;20024;-69
2021/03/28 07:00:59;;;;;;;16.02;3.70;;;;;;;7.16;72.02;102476.47;5293489;28;20027;-69
2021/03/28 07:03:57;;;;;;;8.45;3.10;;;;;;;7.30;71.98;102479.28;5284475;28;20036;-69
2021/03/28 07:06:54;;;;;;;10.65;2.83;;;;;;;7.41;71.45;102488.41;5295060;28;20093;-69
2021/03/28 07:09:25;;;;;;;9.48;2.95;;;;;;;7.49;71.27;102489.75;5290222;28;20036;-70
2021/03/28 07:11:59;;;;;;;14.27;3.50;;;;;;;7.59;71.13;102491.94;5294990;28;20028;-70
2021/03/28 07:15:12;;;;;;;12.98;4.00;;;;;;;7.66;70.58;102481.16;5292109;28;20043;-70
2021/03/28 07:18:16;;;;;;;9.13;3.43;;;;;;;7.81;70.08;102484.81;5295608;28;20028;-71
2021/03/28 07:21:06;;;;;;;;;;;;;;;7.94;69.69;102480.69;5292346;28;20027;-70
2021/03/28 07:23:53;;;;;;;9.52;3.38;;;;;;;8.10;69.59;102487.78;5295526;28;19916;-68
2021/03/28 07:27:03;;;;;;;11.88;3.85;;;;;;;8.26;69.09;102488.75;5298931;28;20035;-69
2021/03/28 07:30:01;;;;;;;12.60;4.03;;;;;;;8.41;68.82;102490.66;5298402;28;20090;-68
2021/03/28 07:33:06;;;;;;;17.20;4.10;;;;;;;8.53;68.24;102494.44;5297608;28;20028;-68
2021/03/28 07:36:03;;;;;;;10.88;3.45;;;;;;;8.64;68.21;102505.19;5295312;28;20484;-69
2021/03/28 07:39:12;;;;;;;9.77;3.38;;;;;;;8.82;67.67;102507.78;5296875;28;20562;-69
2021/03/28 07:42:28;;;;;;;12.82;3.28;;;;;;;8.90;66.92;102501.25;5295400;28;20024;-69
2021/03/28 07:45:37;;;;;;;12.23;3.22;;;;;;;9.02;66.67;102505.84;5298655;28;20028;-69
2021/03/28 07:48:36;;;;;;;9.77;3.92;;;;;;;9.16;66.73;102512.94;5293543;28;20024;-69
2021/03/28 07:51:46;;;;;;;10.77;3.28;;;;;;;9.20;66.59;102511.03;5296408;28;20039;-69
2021/03/28 07:54:23;;;;;;;15.32;3.55;;;;;;;9.22;66.46;102510.03;5296021;28;20030;-71
2021/03/28 07:57:13;;;;;;;10.40;3.00;;;;;;;9.26;65.81;102503.72;5295505;28;20183;-68
2021/03/28 08:00:02;;;;;;;12.68;4.10;;;;;;;9.26;65.79;102498.47;5298738;28;20653;-69
2021/03/28 08:02:55;;;;;;;14.68;3.67;;;;;;;9.27;65.79;102504.53;5295081;28;20105;-69
2021/03/28 08:06:04;;;;;;;13.52;3.72;;;;;;;9.38;65.35;102498.75;5295396;28;20606;-68
2021/03/28 08:09:10;;;;;;;13.35;3.67;;;;;;;9.39;65.45;102493.44;5295587;28;20039;-68
2021/03/28 08:11:54;;;;;;;11.00;3.67;;;;;;;9.49;65.71;102496.41;5287112;28;20040;-68
2021/03/28 08:14:44;;;;;;;;;;;;;;;9.61;65.56;102494.91;5298249;28;20048;-68
2021/03/28 08:17:27;;;;;;;9.45;3.20;;;;;;;9.68;65.05;102493.66;5294286;28;20277;-68
2021/03/28 08:20:18;;;;;;;10.50;3.20;;;;;;;9.74;64.11;102495.94;5294470;28;20025;-68
2021/03/28 08:23:12;;;;;;;14.60;3.70;;;;;;;9.79;64.88;102488.66;5294379;28;20032;-70
2021/03/28 08:25:55;;;;;;;12.07;3.47;;;;;;;9.93;64.99;102487.91;5291793;28;20384;-71
2021/03/28 08:28:36;;;;;;;;;;;;;;;10.02;63.40;102497.84;5287193;28;20044;-71
2021/03/28 08:31:16;;;;;;;13.70;3.80;;;;;;;10.05;63.66;102505.53;5296444;28;20392;-69
2021/03/28 08:34:09;;;;;;;13.60;3.78;;;;;;;10.24;63.41;102490.47;5293119;28;20051;-68
2021/03/28 08:37:00;;;;;;;12.25;3.50;;;;;;;10.35;62.71;102497.75;5296139;28;20039;-68
2021/03/28 08:40:06;;;;;;;14.02;4.03;;;;;;;10.38;62.94;102494.97;5295502;28;20028;-71
2021/03/28 08:42:56;;;;;;;10.45;3.35;;;;;;;10.33;62.67;102494.38;5296346;28;20039;-70
2021/03/28 08:46:11;;;;;;;8.90;3.17;;;;;;;10.63;62.40;102491.75;5297066;28;20059;-68
2021/03/28 08:49:40;;;;;;;10.80;2.85;;;;;;;10.78;61.77;102497.88;5298076;28;20032;-69
2021/03/28 08:52:50;;;;;;;12.07;3.40;;;;;;;10.95;60.76;102495.09;5252973;28;20021;-68
2021/03/28 08:55:50;;;;;;;12.05;3.53;;;;;;;11.23;60.02;102493.41;5251510;28;20045;-68
2021/03/28 08:58:31;;;;;;;9.60;2.72;;;;;;;11.22;58.96;102511.88;5298743;28;20032;-69
2021/03/28 09:01:13;;;;;;;10.88;3.28;;;;;;;11.38;58.72;102489.00;5297064;28;20552;-68
2021/03/28 09:04:03;;;;;;;12.68;3.25;;;;;;;11.62;58.37;102495.34;5309064;28;20032;-68
2021/03/28 09:07:14;;;;;;;11.43;3.28;;;;;;;11.80;56.48;102503.00;5296232;28;20039;-68
2021/03/28 09:09:57;;;;;;;14.93;3.28;;;;;;;11.98;55.71;102487.88;5297570;28;20024;-68
2021/03/28 09:12:36;;;;;;;9.20;2.97;;;;;;;12.18;55.87;102485.63;5296456;28;20024;-68
2021/03/28 09:15:54;;;;;;;11.15;2.80;;;;;;;12.29;53.33;102471.81;5297934;28;20696;-68
2021/03/28 09:18:47;;;;;;;11.70;2.80;;;;;;;12.42;52.89;102482.34;5289520;28;20712;-68
2021/03/28 09:21:28;;;;;;;10.52;2.60;;;;;;;12.32;50.75;102483.91;5296226;28;20484;-68
2021/03/28 09:24:27;;;;;;;10.05;2.17;;;;;;;12.22;50.41;102488.91;5297456;28;20028;-69
2021/03/28 09:27:26;;;;;;;10.05;2.50;;;;;;;12.16;50.26;102494.59;5296376;28;20559;-68
2021/03/28 09:30:10;;;;;;;8.80;2.28;;;;;;;12.06;50.24;102493.50;5295848;28;20073;-68
2021/03/28 09:32:59;;;;;;;9.70;2.10;;;;;;;12.08;50.14;102488.97;5296175;28;20036;-68
2021/03/28 09:36:05;;;;;;;8.02;2.10;;;;;;;12.10;49.93;102492.34;5296406;28;20520;-68
2021/03/28 09:38:47;;;;;;;11.23;2.60;;;;;;;12.19;50.28;102489.09;5289223;28;20020;-69
2021/03/28 09:41:21;;;;;;;7.43;2.58;;;;;;;12.28;48.00;102488.53;5291498;28;20029;-68
2021/03/28 09:44:03;;;;;;;8.13;2.10;;;;;;;12.33;47.23;102496.94;5295478;28;20480;-68
2021/03/28 09:47:00;;;;;;;9.20;2.58;;;;;;;12.49;46.70;102495.91;5293079;28;20119;-69
2021/03/28 09:49:42;;;;;;;8.90;2.80;;;;;;;12.45;46.21;102502.31;5291946;28;20455;-68
2021/03/28 09:52:52;;;;;;;7.20;2.38;;;;;;;12.65;46.66;102494.81;5294246;28;20055;-68
2021/03/28 09:55:34;;;;;;;8.68;2.47;;;;;;;12.74;46.42;102501.22;5291114;28;20035;-69
2021/03/28 09:58:13;;;;;;;10.07;2.20;;;;;;;12.70;45.18;102512.06;5292996;28;20028;-69
2021/03/28 10:00:57;;;;;;;6.50;1.83;;;;;;;12.47;44.98;102514.44;5296352;28;20123;-69
2021/03/28 10:03:48;;;;;;;5.30;1.80;;;;;;;12.47;44.40;102503.06;5293188;28;20127;-69
2021/03/28 10:06:21;;;;;;;7.47;1.85;;;;;;;12.50;44.95;102510.75;5288128;28;20060;-69
2021/03/28 10:09:18;;;;;;;9.10;1.90;;;;;;;12.68;44.11;102513.94;5286132;28;20020;-69
2021/03/28 10:11:54;;;;;;;6.70;1.60;;;;;;;12.75;44.60;102516.03;5288829;28;20396;-69
2021/03/28 10:14:48;;;;;;;7.65;2.00;;;;;;;13.01;44.78;102510.81;5293468;28;20020;-69
2021/03/28 10:17:39;;;;;;;8.95;1.90;;;;;;;13.28;44.44;102518.63;5292802;28;20114;-69
2021/03/28 10:20:20;;;;;;;6.38;1.90;;;;;;;13.26;43.91;102516.09;5295882;28;20517;-69
2021/03/28 10:23:30;;;;;;;5.32;1.60;;;;;;;13.38;44.61;102507.34;5296013;28;20603;-69
2021/03/28 10:26:28;;;;;;;7.72;2.88;;;;;;;13.22;44.02;102522.50;5287102;28;20031;-68
2021/03/28 10:29:11;;;;;;;6.80;2.05;;;;;;;13.23;44.47;102518.94;5302132;22;20023;-74
2021/03/28 10:32:14;;;;;;;10.55;2.45;;;;;;;13.17;44.74;102516.69;5296541;28;20488;-74
2021/03/28 10:35:07;;;;;;;7.95;2.28;;;;;;;13.07;45.13;102527.03;5302937;28;20077;-73
2021/03/28 10:37:44;;;;;;;6.25;2.05;;;;;;;12.93;45.27;102526.28;5305746;28;20400;-73
2021/03/28 10:40:19;;;;;;;9.52;2.72;;;;;;;12.94;45.60;102526.16;5304114;28;20031;-73
2021/03/28 10:43:28;;;;;;;4.47;1.90;;;;;;;13.02;45.92;102523.84;5305180;28;20031;-75
2021/03/28 10:46:33;;;;;;;7.50;2.10;;;;;;;13.02;46.78;102531.75;5298328;28;20035;-73
2021/03/28 10:49:44;;;;;;;9.55;1.80;;;;;;;13.12;46.43;102516.19;5305921;28;20028;-74
2021/03/28 10:52:52;;;;;;;5.72;1.90;;;;;;;13.28;46.32;102516.81;5286794;28;20032;-74
2021/03/28 10:56:00;;;;;;;9.27;2.58;;;;;;;13.35;45.70;102525.97;5301034;28;20119;-74
2021/03/28 10:58:53;;;;;;;8.43;2.40;;;;;;;13.38;45.66;102517.88;5307943;28;20035;-74
2021/03/28 11:01:55;;;;;;;7.68;2.55;;;;;;;13.51;45.32;102530.16;5308294;28;20070;-75
2021/03/28 11:05:04;;;;;;;8.82;2.28;;;;;;;13.52;45.49;102519.53;5307362;28;20507;-74
2021/03/28 11:08:12;;;;;;;10.43;2.83;;;;;;;13.72;45.55;102531.28;5311158;28;20495;-75
2021/03/28 11:11:07;;;;;;;7.45;2.10;;;;;;;13.53;45.91;102507.22;5309235;28;20492;-75
2021/03/28 11:14:00;;;;;;;7.60;2.13;;;;;;;13.55;46.12;102511.41;5309878;28;20034;-75
2021/03/28 11:17:02;;;;;;;7.93;2.03;;;;;;;13.57;46.33;102516.59;5305127;28;20027;-75
2021/03/28 11:20:09;;;;;;;9.20;2.28;;;;;;;13.41;46.17;102527.38;5309621;28;20085;-75
2021/03/28 11:23:23;;;;;;;8.27;1.90;;;;;;;13.32;46.01;102522.72;5297913;28;20051;-74
2021/03/28 11:26:32;;;;;;;6.05;2.03;;;;;;;13.28;46.55;102523.88;5305222;28;20023;-74
2021/03/28 11:29:19;;;;;;;10.05;2.13;;;;;;;13.24;47.06;102520.63;5218472;28;20479;-75
2021/03/28 11:32:01;;;;;;;10.38;2.33;;;;;;;13.27;46.82;102528.31;5281783;28;20072;-73
2021/03/28 11:34:53;;;;;;;10.57;2.15;;;;;;;13.15;46.90;102510.72;5288519;28;20051;-74
2021/03/28 11:37:47;;;;;;;5.55;2.17;;;;;;;13.28;46.92;102527.34;5287609;28;20044;-74
2021/03/28 11:40:44;;;;;;;7.60;1.75;;;;;;;13.07;46.90;102526.19;5285408;28;20028;-74
2021/03/28 11:43:30;;;;;;;8.75;2.05;;;;;;;13.02;46.49;102517.75;5288494;28;20040;-74
2021/03/28 11:46:04;;;;;;;7.43;2.13;;;;;;;12.93;47.60;102529.75;5288818;28;20035;-74
2021/03/28 11:49:02;;;;;;;8.60;2.30;;;;;;;12.98;47.87;102508.38;5285818;28;20393;-74
2021/03/28 11:51:33;;;;;;;6.43;1.65;;;;;;;12.98;47.70;102532.91;5287306;28;20036;-74
2021/03/28 11:54:15;;;;;;;7.20;2.27;;;;;;;12.93;48.05;102526.28;5286461;28;20496;-74
2021/03/28 11:57:05;;;;;;;10.43;2.20;;;;;;;12.77;47.73;102531.75;5280877;28;20074;-74
2021/03/28 11:59:53;;;;;;;8.57;2.20;;;;;;;12.74;48.50;102531.94;5287515;28;20428;-74
2021/03/28 12:02:27;;;;;;;7.88;2.65;;;;;;;12.72;48.60;102526.75;5266503;28;20032;-73
2021/03/28 12:04:59;;;;;;;11.40;2.13;;;;;;;12.70;48.78;102528.69;5283619;28;20498;-75
2021/03/28 12:07:40;;;;;;;7.33;2.20;;;;;;;12.74;48.64;102517.00;5283185;28;20036;-74
2021/03/28 12:10:30;;;;;;;6.78;2.20;;;;;;;12.74;48.84;102517.00;5268604;28;20780;-74
2021/03/28 12:13:45;;;;;;;7.80;2.47;;;;;;;12.81;48.41;102531.44;5262431;28;20488;-73
2021/03/28 12:16:17;;;;;;;10.93;2.40;;;;;;;12.79;49.33;102525.41;5173522;28;20069;-74
2021/03/28 12:18:51;;;;;;;6.30;1.60;;;;;;;12.78;48.50;102526.38;5256018;28;20041;-73
2021/03/28 12:21:30;;;;;;;8.25;2.53;;;;;;;12.80;49.30;102531.50;5279548;28;20020;-74
2021/03/28 12:24:08;;;;;;;8.88;1.90;;;;;;;12.78;48.57;102522.91;5277133;28;20487;-74
2021/03/28 12:26:39;;;;;;;9.75;2.08;;;;;;;12.76;48.81;102525.63;5278978;28;20039;-74
2021/03/28 12:29:19;;;;;;;9.77;2.67;;;;;;;12.73;48.83;102531.09;5288162;28;20039;-74
2021/03/28 12:31:52;;;;;;;10.43;2.50;;;;;;;12.71;49.13;102535.59;5301453;28;20694;-74
2021/03/28 12:34:30;;;;;;;10.27;2.35;;;;;;;12.87;49.10;102525.72;5303201;28;20032;-74
2021/03/28 12:37:07;;;;;;;7.85;1.90;;;;;;;13.01;48.69;102526.59;5299248;28;20023;-74
2021/03/28 12:39:48;;;;;;;11.15;2.55;;;;;;;12.97;48.70;102514.59;5277657;28;20031;-74
2021/03/28 12:42:26;;;;;;;10.13;2.10;;;;;;;13.00;48.36;102506.50;5280729;28;20561;-74
2021/03/28 12:45:06;;;;;;;6.20;2.25;;;;;;;12.97;48.54;102504.91;5306524;28;20030;-74
2021/03/28 12:47:40;;;;;;;8.35;2.30;;;;;;;13.04;48.45;102508.81;5302167;28;20123;-74
2021/03/28 12:50:15;;;;;;;7.55;2.78;;;;;;;13.15;48.45;102513.34;5300970;28;20150;-74
2021/03/28 12:53:04;;;;;;;8.13;2.17;;;;;;;13.11;47.96;102503.97;5307716;28;20046;-74
2021/03/28 12:55:37;;;;;;;9.07;2.40;;;;;;;13.18;48.65;102496.47;5299062;28;20027;-74
2021/03/28 12:58:08;;;;;;;11.77;2.42;;;;;;;13.24;48.54;102504.00;5295730;28;20292;-74
2021/03/28 13:00:39;;;;;;;7.90;2.67;;;;;;;13.26;49.05;102505.59;5298090;28;20027;-73
2021/03/28 13:03:11;;;;;;;9.63;2.53;;;;;;;13.24;48.73;102507.47;5293379;28;20293;-73
2021/03/28 13:06:10;;;;;;;9.10;2.72;;;;;;;13.31;48.62;102498.19;5304512;28;20361;-74
2021/03/28 13:09:17;;;;;;;9.20;2.40;;;;;;;13.29;48.96;102489.53;5299261;28;20080;-74
2021/03/28 13:11:58;;;;;;;6.70;2.15;;;;;;;13.22;48.70;102479.53;5304402;28;20411;-74
2021/03/28 13:14:45;;;;;;;10.73;2.63;;;;;;;13.05;48.86;102475.44;5299379;28;20039;-75
2021/03/28 13:17:25;;;;;;;13.00;2.90;;;;;;;13.07;48.92;102484.09;5300010;28;20508;-73